sensor_id;sensor_type;location;lat;lon;timestamp;P1;durP1;ratioP1;P2;durP2;ratioP2
3841;SDS011;1936;47.074;15.336;2023-04-24T00:00:32;7.70;;;6.70;;
3841;SDS011;1936;47.074;15.336;2023-04-24T00:02:35;8.00;;;6.20;;
3841;SDS011;1936;47.074;15.336;2023-04-24T00:04:41;8.15;;;7.32;;
3841;SDS011;1936;47.074;15.336;2023-04-24T00:06:46;10.30;;;8.20;;
3841;SDS011;1936;47.074;15.336;2023-04-24T00:08:54;8.90;;;7.47;;
3841;SDS011;1936;47.074;15.336;2023-04-24T00:10:57;8.60;;;7.75;;
3841;SDS011;1936;47.074;15.336;2023-04-24T00:13:01;8.07;;;7.27;;
3841;SDS011;1936;47.074;15.336;2023-04-24T00:15:05;7.10;;;6.45;;
3841;SDS011;1936;47.074;15.336;2023-04-24T00:17:10;9.13;;;6.60;;
3841;SDS011;1936;47.074;15.336;2023-04-24T00:19:13;8.47;;;7.23;;
3841;SDS011;1936;47.074;15.336;2023-04-24T00:21:17;8.45;;;7.15;;
3841;SDS011;1936;47.074;15.336;2023-04-24T00:23:21;9.10;;;7.90;;
3841;SDS011;1936;47.074;15.336;2023-04-24T00:25:25;8.00;;;7.20;;
3841;SDS011;1936;47.074;15.336;2023-04-24T00:27:28;9.10;;;8.20;;
3841;SDS011;1936;47.074;15.336;2023-04-24T00:29:31;9.20;;;8.30;;
3841;SDS011;1936;47.074;15.336;2023-04-24T00:31:35;10.00;;;8.70;;
3841;SDS011;1936;47.074;15.336;2023-04-24T00:33:39;10.07;;;9.07;;
3841;SDS011;1936;47.074;15.336;2023-04-24T00:35:43;10.23;;;9.20;;
3841;SDS011;1936;47.074;15.336;2023-04-24T00:37:46;10.93;;;8.30;;
3841;SDS011;1936;47.074;15.336;2023-04-24T00:39:49;10.00;;;8.40;;
3841;SDS011;1936;47.074;15.336;2023-04-24T00:41:52;8.73;;;7.97;;
3841;SDS011;1936;47.074;15.336;2023-04-24T00:43:56;10.93;;;7.97;;
3841;SDS011;1936;47.074;15.336;2023-04-24T00:45:59;9.20;;;8.17;;
3841;SDS011;1936;47.074;15.336;2023-04-24T00:48:04;9.87;;;7.93;;
3841;SDS011;1936;47.074;15.336;2023-04-24T00:50:09;10.20;;;8.00;;
3841;SDS011;1936;47.074;15.336;2023-04-24T00:52:14;9.80;;;7.80;;
3841;SDS011;1936;47.074;15.336;2023-04-24T00:54:19;8.10;;;6.93;;
3841;SDS011;1936;47.074;15.336;2023-04-24T00:56:22;8.53;;;7.63;;
3841;SDS011;1936;47.074;15.336;2023-04-24T00:58:26;8.13;;;7.30;;
3841;SDS011;1936;47.074;15.336;2023-04-24T01:00:30;8.03;;;6.60;;
3841;SDS011;1936;47.074;15.336;2023-04-24T01:02:33;7.80;;;6.40;;
3841;SDS011;1936;47.074;15.336;2023-04-24T01:04:37;8.40;;;7.60;;
3841;SDS011;1936;47.074;15.336;2023-04-24T01:06:42;8.87;;;6.67;;
3841;SDS011;1936;47.074;15.336;2023-04-24T01:08:46;7.37;;;6.50;;
3841;SDS011;1936;47.074;15.336;2023-04-24T01:10:51;6.63;;;5.93;;
3841;SDS011;1936;47.074;15.336;2023-04-24T01:12:55;6.03;;;5.53;;
3841;SDS011;1936;47.074;15.336;2023-04-24T01:14:59;7.23;;;6.47;;
3841;SDS011;1936;47.074;15.336;2023-04-24T01:17:02;7.43;;;6.73;;
3841;SDS011;1936;47.074;15.336;2023-04-24T01:19:10;9.67;;;8.67;;
3841;SDS011;1936;47.074;15.336;2023-04-24T01:21:15;6.93;;;6.23;;
3841;SDS011;1936;47.074;15.336;2023-04-24T01:23:23;5.72;;;5.22;;
3841;SDS011;1936;47.074;15.336;2023-04-24T01:25:27;7.10;;;6.40;;
3841;SDS011;1936;47.074;15.336;2023-04-24T01:27:31;5.87;;;5.27;;
3841;SDS011;1936;47.074;15.336;2023-04-24T01:29:35;6.77;;;4.67;;
3841;SDS011;1936;47.074;15.336;2023-04-24T01:31:39;8.63;;;7.17;;
3841;SDS011;1936;47.074;15.336;2023-04-24T01:33:43;5.40;;;4.90;;
3841;SDS011;1936;47.074;15.336;2023-04-24T01:35:46;7.00;;;6.03;;
3841;SDS011;1936;47.074;15.336;2023-04-24T01:37:50;7.97;;;6.03;;
3841;SDS011;1936;47.074;15.336;2023-04-24T01:39:55;5.33;;;4.93;;
3841;SDS011;1936;47.074;15.336;2023-04-24T01:41:59;4.95;;;4.45;;
3841;SDS011;1936;47.074;15.336;2023-04-24T01:44:03;8.75;;;6.90;;
3841;SDS011;1936;47.074;15.336;2023-04-24T01:46:07;9.37;;;8.30;;
3841;SDS011;1936;47.074;15.336;2023-04-24T01:48:11;8.32;;;6.90;;
3841;SDS011;1936;47.074;15.336;2023-04-24T01:50:15;7.82;;;7.05;;
3841;SDS011;1936;47.074;15.336;2023-04-24T01:52:19;12.02;;;6.70;;
3841;SDS011;1936;47.074;15.336;2023-04-24T01:54:26;7.95;;;7.07;;
3841;SDS011;1936;47.074;15.336;2023-04-24T01:56:31;12.00;;;9.90;;
3841;SDS011;1936;47.074;15.336;2023-04-24T01:58:37;11.27;;;9.80;;
3841;SDS011;1936;47.074;15.336;2023-04-24T02:00:40;14.73;;;11.70;;
3841;SDS011;1936;47.074;15.336;2023-04-24T02:02:44;15.48;;;12.30;;
3841;SDS011;1936;47.074;15.336;2023-04-24T02:04:49;17.80;;;13.60;;
3841;SDS011;1936;47.074;15.336;2023-04-24T02:06:52;17.50;;;13.43;;
3841;SDS011;1936;47.074;15.336;2023-04-24T02:08:55;8.97;;;8.07;;
3841;SDS011;1936;47.074;15.336;2023-04-24T02:10:59;11.83;;;10.60;;
3841;SDS011;1936;47.074;15.336;2023-04-24T02:13:04;13.20;;;9.93;;
3841;SDS011;1936;47.074;15.336;2023-04-24T02:15:07;13.97;;;11.40;;
3841;SDS011;1936;47.074;15.336;2023-04-24T02:17:11;13.73;;;10.93;;
3841;SDS011;1936;47.074;15.336;2023-04-24T02:19:16;12.60;;;10.67;;
3841;SDS011;1936;47.074;15.336;2023-04-24T02:21:20;13.83;;;11.40;;
3841;SDS011;1936;47.074;15.336;2023-04-24T02:23:23;15.13;;;11.93;;
3841;SDS011;1936;47.074;15.336;2023-04-24T02:25:26;13.70;;;11.27;;
3841;SDS011;1936;47.074;15.336;2023-04-24T02:27:30;14.53;;;11.50;;
3841;SDS011;1936;47.074;15.336;2023-04-24T02:29:34;16.63;;;12.00;;
3841;SDS011;1936;47.074;15.336;2023-04-24T02:31:37;14.23;;;11.07;;
3841;SDS011;1936;47.074;15.336;2023-04-24T02:33:40;20.37;;;12.83;;
3841;SDS011;1936;47.074;15.336;2023-04-24T02:35:44;18.10;;;11.87;;
3841;SDS011;1936;47.074;15.336;2023-04-24T02:37:47;16.70;;;12.95;;
3841;SDS011;1936;47.074;15.336;2023-04-24T02:39:50;15.57;;;12.80;;
3841;SDS011;1936;47.074;15.336;2023-04-24T02:41:54;15.60;;;12.70;;
3841;SDS011;1936;47.074;15.336;2023-04-24T02:43:57;19.10;;;11.03;;
3841;SDS011;1936;47.074;15.336;2023-04-24T02:46:02;14.63;;;12.20;;
3841;SDS011;1936;47.074;15.336;2023-04-24T02:48:06;13.33;;;11.73;;
3841;SDS011;1936;47.074;15.336;2023-04-24T02:50:09;14.20;;;11.63;;
3841;SDS011;1936;47.074;15.336;2023-04-24T02:52:12;13.97;;;12.17;;
3841;SDS011;1936;47.074;15.336;2023-04-24T02:54:16;19.13;;;12.47;;
3841;SDS011;1936;47.074;15.336;2023-04-24T02:56:20;17.10;;;11.60;;
3841;SDS011;1936;47.074;15.336;2023-04-24T02:58:25;15.37;;;11.70;;
3841;SDS011;1936;47.074;15.336;2023-04-24T03:00:29;12.90;;;11.60;;
3841;SDS011;1936;47.074;15.336;2023-04-24T03:02:33;14.13;;;12.50;;
3841;SDS011;1936;47.074;15.336;2023-04-24T03:04:37;13.83;;;11.93;;
3841;SDS011;1936;47.074;15.336;2023-04-24T03:06:41;15.70;;;12.67;;
3841;SDS011;1936;47.074;15.336;2023-04-24T03:08:44;20.80;;;13.45;;
3841;SDS011;1936;47.074;15.336;2023-04-24T03:10:48;16.67;;;14.83;;
3841;SDS011;1936;47.074;15.336;2023-04-24T03:12:51;17.77;;;13.10;;
3841;SDS011;1936;47.074;15.336;2023-04-24T03:14:56;15.43;;;13.10;;
3841;SDS011;1936;47.074;15.336;2023-04-24T03:16:59;16.70;;;12.90;;
3841;SDS011;1936;47.074;15.336;2023-04-24T03:19:04;16.43;;;12.93;;
3841;SDS011;1936;47.074;15.336;2023-04-24T03:21:07;14.70;;;12.43;;
3841;SDS011;1936;47.074;15.336;2023-04-24T03:23:10;12.50;;;11.17;;
3841;SDS011;1936;47.074;15.336;2023-04-24T03:25:13;17.40;;;14.15;;
3841;SDS011;1936;47.074;15.336;2023-04-24T03:27:17;17.20;;;13.20;;
3841;SDS011;1936;47.074;15.336;2023-04-24T03:29:20;14.33;;;12.20;;
3841;SDS011;1936;47.074;15.336;2023-04-24T03:31:23;16.30;;;13.27;;
3841;SDS011;1936;47.074;15.336;2023-04-24T03:33:26;15.50;;;13.80;;
3841;SDS011;1936;47.074;15.336;2023-04-24T03:35:31;15.90;;;13.87;;
3841;SDS011;1936;47.074;15.336;2023-04-24T03:37:35;14.30;;;12.10;;
3841;SDS011;1936;47.074;15.336;2023-04-24T03:39:38;17.03;;;14.20;;
3841;SDS011;1936;47.074;15.336;2023-04-24T03:41:41;18.67;;;14.10;;
3841;SDS011;1936;47.074;15.336;2023-04-24T03:43:45;13.17;;;11.70;;
3841;SDS011;1936;47.074;15.336;2023-04-24T03:45:48;14.27;;;12.20;;
3841;SDS011;1936;47.074;15.336;2023-04-24T03:47:52;16.07;;;12.60;;
3841;SDS011;1936;47.074;15.336;2023-04-24T03:49:55;18.20;;;13.00;;
3841;SDS011;1936;47.074;15.336;2023-04-24T03:52:00;17.03;;;13.43;;
3841;SDS011;1936;47.074;15.336;2023-04-24T03:54:03;14.07;;;12.10;;
3841;SDS011;1936;47.074;15.336;2023-04-24T03:56:06;18.83;;;13.70;;
3841;SDS011;1936;47.074;15.336;2023-04-24T03:58:10;16.13;;;13.43;;
3841;SDS011;1936;47.074;15.336;2023-04-24T04:00:15;15.60;;;13.00;;
3841;SDS011;1936;47.074;15.336;2023-04-24T04:02:19;14.77;;;12.83;;
3841;SDS011;1936;47.074;15.336;2023-04-24T04:04:23;18.00;;;13.23;;
3841;SDS011;1936;47.074;15.336;2023-04-24T04:06:27;17.13;;;13.30;;
3841;SDS011;1936;47.074;15.336;2023-04-24T04:08:33;15.87;;;13.50;;
3841;SDS011;1936;47.074;15.336;2023-04-24T04:10:36;16.97;;;13.40;;
3841;SDS011;1936;47.074;15.336;2023-04-24T04:12:39;17.73;;;13.40;;
3841;SDS011;1936;47.074;15.336;2023-04-24T04:14:43;15.43;;;13.40;;
3841;SDS011;1936;47.074;15.336;2023-04-24T04:16:46;17.50;;;15.20;;
3841;SDS011;1936;47.074;15.336;2023-04-24T04:18:51;16.63;;;13.03;;
3841;SDS011;1936;47.074;15.336;2023-04-24T04:20:54;16.23;;;14.50;;
3841;SDS011;1936;47.074;15.336;2023-04-24T04:22:58;14.63;;;11.80;;
3841;SDS011;1936;47.074;15.336;2023-04-24T04:25:02;14.00;;;12.50;;
3841;SDS011;1936;47.074;15.336;2023-04-24T04:27:06;18.93;;;13.07;;
3841;SDS011;1936;47.074;15.336;2023-04-24T04:29:10;16.90;;;13.83;;
3841;SDS011;1936;47.074;15.336;2023-04-24T04:31:14;17.03;;;14.37;;
3841;SDS011;1936;47.074;15.336;2023-04-24T04:33:17;19.67;;;14.40;;
3841;SDS011;1936;47.074;15.336;2023-04-24T04:35:20;16.97;;;13.60;;
3841;SDS011;1936;47.074;15.336;2023-04-24T04:37:23;15.07;;;13.43;;
3841;SDS011;1936;47.074;15.336;2023-04-24T04:39:27;17.70;;;14.33;;
3841;SDS011;1936;47.074;15.336;2023-04-24T04:41:32;16.17;;;14.00;;
3841;SDS011;1936;47.074;15.336;2023-04-24T04:43:36;16.43;;;13.00;;
3841;SDS011;1936;47.074;15.336;2023-04-24T04:45:41;16.83;;;14.23;;
3841;SDS011;1936;47.074;15.336;2023-04-24T04:47:44;29.03;;;13.00;;
3841;SDS011;1936;47.074;15.336;2023-04-24T04:49:48;19.30;;;14.37;;
3841;SDS011;1936;47.074;15.336;2023-04-24T04:51:52;33.97;;;14.07;;
3841;SDS011;1936;47.074;15.336;2023-04-24T04:53:55;19.57;;;15.10;;
3841;SDS011;1936;47.074;15.336;2023-04-24T04:55:58;16.50;;;14.67;;
3841;SDS011;1936;47.074;15.336;2023-04-24T04:58:03;16.33;;;14.63;;
3841;SDS011;1936;47.074;15.336;2023-04-24T05:00:07;16.83;;;13.20;;
3841;SDS011;1936;47.074;15.336;2023-04-24T05:02:16;17.10;;;15.10;;
3841;SDS011;1936;47.074;15.336;2023-04-24T05:04:19;15.83;;;13.90;;
3841;SDS011;1936;47.074;15.336;2023-04-24T05:06:23;16.47;;;13.37;;
3841;SDS011;1936;47.074;15.336;2023-04-24T05:08:27;20.00;;;13.83;;
3841;SDS011;1936;47.074;15.336;2023-04-24T05:10:32;15.33;;;12.70;;
3841;SDS011;1936;47.074;15.336;2023-04-24T05:12:35;18.63;;;11.60;;
3841;SDS011;1936;47.074;15.336;2023-04-24T05:14:40;16.40;;;12.70;;
3841;SDS011;1936;47.074;15.336;2023-04-24T05:16:43;16.30;;;12.63;;
3841;SDS011;1936;47.074;15.336;2023-04-24T05:18:47;14.33;;;12.90;;
3841;SDS011;1936;47.074;15.336;2023-04-24T05:20:50;16.63;;;13.87;;
3841;SDS011;1936;47.074;15.336;2023-04-24T05:22:53;18.80;;;13.47;;
3841;SDS011;1936;47.074;15.336;2023-04-24T05:24:57;22.57;;;13.20;;
3841;SDS011;1936;47.074;15.336;2023-04-24T05:27:00;14.53;;;12.90;;
3841;SDS011;1936;47.074;15.336;2023-04-24T05:29:06;15.97;;;12.50;;
3841;SDS011;1936;47.074;15.336;2023-04-24T05:31:10;13.80;;;12.27;;
3841;SDS011;1936;47.074;15.336;2023-04-24T05:33:15;16.30;;;11.57;;
3841;SDS011;1936;47.074;15.336;2023-04-24T05:35:19;14.70;;;13.20;;
3841;SDS011;1936;47.074;15.336;2023-04-24T05:37:23;17.13;;;12.43;;
3841;SDS011;1936;47.074;15.336;2023-04-24T05:39:27;15.57;;;12.93;;
3841;SDS011;1936;47.074;15.336;2023-04-24T05:41:30;17.97;;;11.77;;
3841;SDS011;1936;47.074;15.336;2023-04-24T05:43:33;16.10;;;12.93;;
3841;SDS011;1936;47.074;15.336;2023-04-24T05:45:37;14.00;;;12.00;;
3841;SDS011;1936;47.074;15.336;2023-04-24T05:47:41;13.53;;;11.10;;
3841;SDS011;1936;47.074;15.336;2023-04-24T05:49:45;16.20;;;12.33;;
3841;SDS011;1936;47.074;15.336;2023-04-24T05:51:48;14.00;;;12.53;;
3841;SDS011;1936;47.074;15.336;2023-04-24T05:53:52;13.97;;;11.70;;
3841;SDS011;1936;47.074;15.336;2023-04-24T05:55:55;12.53;;;10.10;;
3841;SDS011;1936;47.074;15.336;2023-04-24T05:57:58;10.47;;;9.47;;
3841;SDS011;1936;47.074;15.336;2023-04-24T06:00:02;10.13;;;8.67;;
3841;SDS011;1936;47.074;15.336;2023-04-24T06:02:06;9.80;;;8.57;;
3841;SDS011;1936;47.074;15.336;2023-04-24T06:04:11;9.27;;;8.33;;
3841;SDS011;1936;47.074;15.336;2023-04-24T06:06:16;10.63;;;8.83;;
3841;SDS011;1936;47.074;15.336;2023-04-24T06:08:20;9.97;;;8.97;;
3841;SDS011;1936;47.074;15.336;2023-04-24T06:10:23;10.03;;;8.57;;
3841;SDS011;1936;47.074;15.336;2023-04-24T06:12:27;9.80;;;7.40;;
3841;SDS011;1936;47.074;15.336;2023-04-24T06:14:30;8.83;;;8.03;;
3841;SDS011;1936;47.074;15.336;2023-04-24T06:16:33;8.67;;;7.87;;
3841;SDS011;1936;47.074;15.336;2023-04-24T06:18:37;9.10;;;7.87;;
3841;SDS011;1936;47.074;15.336;2023-04-24T06:20:41;12.00;;;7.30;;
3841;SDS011;1936;47.074;15.336;2023-04-24T06:22:45;8.73;;;6.20;;
3841;SDS011;1936;47.074;15.336;2023-04-24T06:24:48;6.80;;;6.20;;
3841;SDS011;1936;47.074;15.336;2023-04-24T06:26:51;7.63;;;6.83;;
3841;SDS011;1936;47.074;15.336;2023-04-24T06:28:55;6.93;;;6.23;;
3841;SDS011;1936;47.074;15.336;2023-04-24T06:31:00;8.10;;;6.30;;
3841;SDS011;1936;47.074;15.336;2023-04-24T06:33:03;7.73;;;7.03;;
3841;SDS011;1936;47.074;15.336;2023-04-24T06:35:21;5.53;;;5.03;;
3841;SDS011;1936;47.074;15.336;2023-04-24T06:37:26;6.80;;;6.10;;
3841;SDS011;1936;47.074;15.336;2023-04-24T06:39:30;5.80;;;5.20;;
3841;SDS011;1936;47.074;15.336;2023-04-24T06:41:33;7.13;;;4.87;;
3841;SDS011;1936;47.074;15.336;2023-04-24T06:43:37;6.40;;;5.80;;
3841;SDS011;1936;47.074;15.336;2023-04-24T06:45:40;8.93;;;5.70;;
3841;SDS011;1936;47.074;15.336;2023-04-24T06:47:45;8.53;;;6.00;;
3841;SDS011;1936;47.074;15.336;2023-04-24T06:49:49;6.67;;;5.53;;
3841;SDS011;1936;47.074;15.336;2023-04-24T06:51:53;6.37;;;5.77;;
3841;SDS011;1936;47.074;15.336;2023-04-24T06:53:58;7.60;;;6.43;;
3841;SDS011;1936;47.074;15.336;2023-04-24T06:56:02;10.50;;;6.80;;
3841;SDS011;1936;47.074;15.336;2023-04-24T06:58:06;7.20;;;5.60;;
3841;SDS011;1936;47.074;15.336;2023-04-24T07:00:10;5.77;;;5.20;;
3841;SDS011;1936;47.074;15.336;2023-04-24T07:02:13;10.00;;;6.03;;
3841;SDS011;1936;47.074;15.336;2023-04-24T07:04:17;5.90;;;5.30;;
3841;SDS011;1936;47.074;15.336;2023-04-24T07:06:21;6.57;;;5.23;;
3841;SDS011;1936;47.074;15.336;2023-04-24T07:08:25;7.30;;;5.83;;
3841;SDS011;1936;47.074;15.336;2023-04-24T07:10:30;6.03;;;5.53;;
3841;SDS011;1936;47.074;15.336;2023-04-24T07:12:37;6.50;;;5.30;;
3841;SDS011;1936;47.074;15.336;2023-04-24T07:14:40;10.53;;;5.40;;
3841;SDS011;1936;47.074;15.336;2023-04-24T07:16:43;7.27;;;6.47;;
3841;SDS011;1936;47.074;15.336;2023-04-24T07:18:47;9.90;;;6.10;;
3841;SDS011;1936;47.074;15.336;2023-04-24T07:20:50;5.97;;;5.47;;
3841;SDS011;1936;47.074;15.336;2023-04-24T07:22:53;6.93;;;6.23;;
3841;SDS011;1936;47.074;15.336;2023-04-24T07:24:57;8.53;;;6.60;;
3841;SDS011;1936;47.074;15.336;2023-04-24T07:27:04;8.27;;;6.07;;
3841;SDS011;1936;47.074;15.336;2023-04-24T07:29:07;9.90;;;5.93;;
3841;SDS011;1936;47.074;15.336;2023-04-24T07:31:11;6.27;;;4.90;;
3841;SDS011;1936;47.074;15.336;2023-04-24T07:33:14;5.90;;;5.40;;
3841;SDS011;1936;47.074;15.336;2023-04-24T07:35:18;10.43;;;5.97;;
3841;SDS011;1936;47.074;15.336;2023-04-24T07:37:22;8.10;;;6.30;;
3841;SDS011;1936;47.074;15.336;2023-04-24T07:39:26;7.03;;;6.20;;
3841;SDS011;1936;47.074;15.336;2023-04-24T07:41:30;10.50;;;7.13;;
3841;SDS011;1936;47.074;15.336;2023-04-24T07:43:35;9.63;;;5.80;;
3841;SDS011;1936;47.074;15.336;2023-04-24T07:45:39;7.67;;;6.87;;
3841;SDS011;1936;47.074;15.336;2023-04-24T07:47:43;9.10;;;6.67;;
3841;SDS011;1936;47.074;15.336;2023-04-24T07:49:47;11.80;;;7.30;;
3841;SDS011;1936;47.074;15.336;2023-04-24T07:51:50;19.47;;;10.67;;
3841;SDS011;1936;47.074;15.336;2023-04-24T07:53:53;26.23;;;12.83;;
3841;SDS011;1936;47.074;15.336;2023-04-24T07:55:57;11.70;;;9.13;;
3841;SDS011;1936;47.074;15.336;2023-04-24T07:58:01;8.97;;;8.07;;
3841;SDS011;1936;47.074;15.336;2023-04-24T08:00:07;10.03;;;7.47;;
3841;SDS011;1936;47.074;15.336;2023-04-24T08:02:12;9.17;;;8.27;;
3841;SDS011;1936;47.074;15.336;2023-04-24T08:04:16;8.93;;;8.03;;
3841;SDS011;1936;47.074;15.336;2023-04-24T08:06:20;10.40;;;9.40;;
3841;SDS011;1936;47.074;15.336;2023-04-24T08:08:24;8.20;;;6.83;;
3841;SDS011;1936;47.074;15.336;2023-04-24T08:10:27;11.30;;;8.20;;
3841;SDS011;1936;47.074;15.336;2023-04-24T08:12:31;7.00;;;6.40;;
3841;SDS011;1936;47.074;15.336;2023-04-24T08:14:34;7.50;;;6.80;;
3841;SDS011;1936;47.074;15.336;2023-04-24T08:16:39;6.30;;;5.50;;
3841;SDS011;1936;47.074;15.336;2023-04-24T08:18:43;6.33;;;5.73;;
3841;SDS011;1936;47.074;15.336;2023-04-24T08:20:47;6.70;;;5.37;;
3841;SDS011;1936;47.074;15.336;2023-04-24T08:22:50;5.87;;;5.37;;
3841;SDS011;1936;47.074;15.336;2023-04-24T08:24:53;6.90;;;6.07;;
3841;SDS011;1936;47.074;15.336;2023-04-24T08:26:58;7.97;;;7.17;;
3841;SDS011;1936;47.074;15.336;2023-04-24T08:29:02;6.60;;;5.70;;
3841;SDS011;1936;47.074;15.336;2023-04-24T08:31:06;6.30;;;5.60;;
3841;SDS011;1936;47.074;15.336;2023-04-24T08:33:11;6.40;;;5.60;;
3841;SDS011;1936;47.074;15.336;2023-04-24T08:35:14;9.13;;;5.13;;
3841;SDS011;1936;47.074;15.336;2023-04-24T08:37:18;5.63;;;5.10;;
3841;SDS011;1936;47.074;15.336;2023-04-24T08:39:21;6.40;;;5.00;;
3841;SDS011;1936;47.074;15.336;2023-04-24T08:41:25;6.00;;;5.30;;
3841;SDS011;1936;47.074;15.336;2023-04-24T08:43:30;7.50;;;5.40;;
3841;SDS011;1936;47.074;15.336;2023-04-24T08:45:35;5.47;;;4.97;;
3841;SDS011;1936;47.074;15.336;2023-04-24T08:47:40;6.30;;;5.27;;
3841;SDS011;1936;47.074;15.336;2023-04-24T08:49:47;6.43;;;5.83;;
3841;SDS011;1936;47.074;15.336;2023-04-24T08:51:52;5.90;;;5.30;;
3841;SDS011;1936;47.074;15.336;2023-04-24T08:53:56;11.73;;;7.33;;
3841;SDS011;1936;47.074;15.336;2023-04-24T08:56:00;6.10;;;5.10;;
3841;SDS011;1936;47.074;15.336;2023-04-24T08:58:04;9.47;;;6.17;;
3841;SDS011;1936;47.074;15.336;2023-04-24T09:00:08;5.07;;;4.57;;
3841;SDS011;1936;47.074;15.336;2023-04-24T09:02:12;6.23;;;4.90;;
3841;SDS011;1936;47.074;15.336;2023-04-24T09:04:17;9.63;;;5.67;;
3841;SDS011;1936;47.074;15.336;2023-04-24T09:06:25;5.80;;;5.23;;
3841;SDS011;1936;47.074;15.336;2023-04-24T09:08:29;7.47;;;5.57;;
3841;SDS011;1936;47.074;15.336;2023-04-24T09:10:33;6.53;;;5.77;;
3841;SDS011;1936;47.074;15.336;2023-04-24T09:12:38;6.30;;;5.70;;
3841;SDS011;1936;47.074;15.336;2023-04-24T09:14:41;6.30;;;5.80;;
3841;SDS011;1936;47.074;15.336;2023-04-24T09:16:47;8.03;;;6.50;;
3841;SDS011;1936;47.074;15.336;2023-04-24T09:18:51;7.83;;;6.63;;
3841;SDS011;1936;47.074;15.336;2023-04-24T09:20:58;6.07;;;5.50;;
3841;SDS011;1936;47.074;15.336;2023-04-24T09:23:04;5.77;;;4.50;;
3841;SDS011;1936;47.074;15.336;2023-04-24T09:25:08;5.30;;;3.63;;
3841;SDS011;1936;47.074;15.336;2023-04-24T09:27:14;5.20;;;3.80;;
3841;SDS011;1936;47.074;15.336;2023-04-24T09:29:20;3.03;;;2.70;;
3841;SDS011;1936;47.074;15.336;2023-04-24T09:31:23;4.33;;;3.20;;
3841;SDS011;1936;47.074;15.336;2023-04-24T09:33:29;5.50;;;3.87;;
3841;SDS011;1936;47.074;15.336;2023-04-24T09:35:33;3.40;;;3.10;;
3841;SDS011;1936;47.074;15.336;2023-04-24T09:37:36;4.83;;;2.93;;
3841;SDS011;1936;47.074;15.336;2023-04-24T09:39:42;3.30;;;3.00;;
3841;SDS011;1936;47.074;15.336;2023-04-24T09:41:46;4.83;;;2.93;;
3841;SDS011;1936;47.074;15.336;2023-04-24T09:43:50;2.40;;;2.10;;
3841;SDS011;1936;47.074;15.336;2023-04-24T09:45:55;2.03;;;1.93;;
3841;SDS011;1936;47.074;15.336;2023-04-24T09:48:00;2.90;;;1.90;;
3841;SDS011;1936;47.074;15.336;2023-04-24T09:50:10;3.67;;;2.80;;
3841;SDS011;1936;47.074;15.336;2023-04-24T09:52:15;1.43;;;1.33;;
3841;SDS011;1936;47.074;15.336;2023-04-24T09:54:19;1.80;;;1.37;;
3841;SDS011;1936;47.074;15.336;2023-04-24T09:56:25;2.80;;;1.20;;
3841;SDS011;1936;47.074;15.336;2023-04-24T09:58:30;1.67;;;1.57;;
3841;SDS011;1936;47.074;15.336;2023-04-24T10:00:34;1.77;;;1.30;;
3841;SDS011;1936;47.074;15.336;2023-04-24T10:02:38;1.43;;;1.20;;
3841;SDS011;1936;47.074;15.336;2023-04-24T10:04:41;1.87;;;1.40;;
3841;SDS011;1936;47.074;15.336;2023-04-24T10:06:58;1.70;;;1.60;;
3841;SDS011;1936;47.074;15.336;2023-04-24T10:09:02;5.30;;;3.63;;
3841;SDS011;1936;47.074;15.336;2023-04-24T10:11:06;2.50;;;2.10;;
3841;SDS011;1936;47.074;15.336;2023-04-24T10:23:17;1.70;;;1.10;;
3841;SDS011;1936;47.074;15.336;2023-04-24T10:25:36;1.63;;;1.40;;
3841;SDS011;1936;47.074;15.336;2023-04-24T10:27:53;5.90;;;4.13;;
3841;SDS011;1936;47.074;15.336;2023-04-24T10:30:15;8.43;;;4.07;;
3841;SDS011;1936;47.074;15.336;2023-04-24T10:32:19;12.93;;;6.30;;
3841;SDS011;1936;47.074;15.336;2023-04-24T10:34:22;6.67;;;4.13;;
3841;SDS011;1936;47.074;15.336;2023-04-24T10:36:26;7.30;;;4.13;;
3841;SDS011;1936;47.074;15.336;2023-04-24T10:38:39;7.20;;;2.80;;
3841;SDS011;1936;47.074;15.336;2023-04-24T10:40:44;1.43;;;1.20;;
3841;SDS011;1936;47.074;15.336;2023-04-24T10:42:47;5.53;;;2.97;;
3841;SDS011;1936;47.074;15.336;2023-04-24T10:44:56;2.30;;;2.10;;
3841;SDS011;1936;47.074;15.336;2023-04-24T10:46:59;1.10;;;0.97;;
3841;SDS011;1936;47.074;15.336;2023-04-24T10:49:04;1.77;;;1.30;;
3841;SDS011;1936;47.074;15.336;2023-04-24T10:51:12;2.70;;;1.73;;
3841;SDS011;1936;47.074;15.336;2023-04-24T10:53:17;5.13;;;2.80;;
3841;SDS011;1936;47.074;15.336;2023-04-24T10:58:01;10.07;;;5.30;;
3841;SDS011;1936;47.074;15.336;2023-04-24T11:00:21;2.87;;;1.57;;
3841;SDS011;1936;47.074;15.336;2023-04-24T11:02:35;3.37;;;2.10;;
3841;SDS011;1936;47.074;15.336;2023-04-24T11:04:40;2.83;;;2.13;;
3841;SDS011;1936;47.074;15.336;2023-04-24T11:06:44;3.70;;;1.43;;
3841;SDS011;1936;47.074;15.336;2023-04-24T11:08:47;2.57;;;1.60;;
3841;SDS011;1936;47.074;15.336;2023-04-24T11:10:56;1.80;;;1.50;;
3841;SDS011;1936;47.074;15.336;2023-04-24T11:13:01;2.13;;;1.80;;
3841;SDS011;1936;47.074;15.336;2023-04-24T11:15:05;6.60;;;2.40;;
3841;SDS011;1936;47.074;15.336;2023-04-24T11:17:26;2.90;;;1.60;;
3841;SDS011;1936;47.074;15.336;2023-04-24T11:19:31;1.50;;;1.30;;
3841;SDS011;1936;47.074;15.336;2023-04-24T11:21:39;3.87;;;1.43;;
3841;SDS011;1936;47.074;15.336;2023-04-24T11:23:44;2.90;;;2.10;;
3841;SDS011;1936;47.074;15.336;2023-04-24T11:25:52;1.70;;;1.23;;
3841;SDS011;1936;47.074;15.336;2023-04-24T11:28:15;2.43;;;1.77;;
3841;SDS011;1936;47.074;15.336;2023-04-24T11:30:19;6.23;;;1.30;;
3841;SDS011;1936;47.074;15.336;2023-04-24T11:32:24;1.93;;;1.60;;
3841;SDS011;1936;47.074;15.336;2023-04-24T11:34:28;1.40;;;1.20;;
3841;SDS011;1936;47.074;15.336;2023-04-24T11:36:32;1.20;;;0.97;;
3841;SDS011;1936;47.074;15.336;2023-04-24T11:38:36;1.20;;;1.00;;
3841;SDS011;1936;47.074;15.336;2023-04-24T11:40:41;1.20;;;1.07;;
3841;SDS011;1936;47.074;15.336;2023-04-24T11:42:47;1.50;;;1.27;;
3841;SDS011;1936;47.074;15.336;2023-04-24T11:44:52;2.13;;;1.70;;
3841;SDS011;1936;47.074;15.336;2023-04-24T11:46:57;3.07;;;1.40;;
3841;SDS011;1936;47.074;15.336;2023-04-24T11:49:01;3.93;;;1.70;;
3841;SDS011;1936;47.074;15.336;2023-04-24T11:51:04;2.83;;;1.57;;
3841;SDS011;1936;47.074;15.336;2023-04-24T11:53:08;1.97;;;1.20;;
3841;SDS011;1936;47.074;15.336;2023-04-24T11:55:22;2.77;;;1.10;;
3841;SDS011;1936;47.074;15.336;2023-04-24T11:57:28;1.80;;;1.23;;
3841;SDS011;1936;47.074;15.336;2023-04-24T11:59:36;1.10;;;1.00;;
3841;SDS011;1936;47.074;15.336;2023-04-24T12:01:43;2.30;;;1.30;;
3841;SDS011;1936;47.074;15.336;2023-04-24T12:03:47;1.40;;;1.30;;
3841;SDS011;1936;47.074;15.336;2023-04-24T12:05:52;4.20;;;1.30;;
3841;SDS011;1936;47.074;15.336;2023-04-24T12:08:09;1.60;;;0.80;;
3841;SDS011;1936;47.074;15.336;2023-04-24T12:10:12;2.07;;;0.87;;
3841;SDS011;1936;47.074;15.336;2023-04-24T12:12:16;1.90;;;1.07;;
3841;SDS011;1936;47.074;15.336;2023-04-24T12:14:20;1.20;;;1.07;;
3841;SDS011;1936;47.074;15.336;2023-04-24T12:16:25;1.97;;;1.13;;
3841;SDS011;1936;47.074;15.336;2023-04-24T12:18:29;1.33;;;1.23;;
3841;SDS011;1936;47.074;15.336;2023-04-24T12:20:32;2.93;;;0.97;;
3841;SDS011;1936;47.074;15.336;2023-04-24T12:22:44;1.77;;;0.90;;
3841;SDS011;1936;47.074;15.336;2023-04-24T12:24:58;1.53;;;1.40;;
3841;SDS011;1936;47.074;15.336;2023-04-24T12:27:03;1.30;;;0.80;;
3841;SDS011;1936;47.074;15.336;2023-04-24T12:29:07;1.40;;;1.20;;
3841;SDS011;1936;47.074;15.336;2023-04-24T12:31:10;2.70;;;0.90;;
3841;SDS011;1936;47.074;15.336;2023-04-24T12:33:18;1.27;;;1.00;;
3841;SDS011;1936;47.074;15.336;2023-04-24T12:35:22;1.10;;;1.00;;
3841;SDS011;1936;47.074;15.336;2023-04-24T12:37:31;1.30;;;0.70;;
3841;SDS011;1936;47.074;15.336;2023-04-24T12:39:38;1.70;;;0.83;;
3841;SDS011;1936;47.074;15.336;2023-04-24T12:41:56;3.73;;;1.13;;
3841;SDS011;1936;47.074;15.336;2023-04-24T12:44:01;1.20;;;0.83;;
3841;SDS011;1936;47.074;15.336;2023-04-24T12:46:04;0.90;;;0.60;;